sensor_id;sensor_type;location;lat;lon;timestamp;P1;durP1;ratioP1;P2;durP2;ratioP2
3663;SDS011;1848;51.042;7.066;2022-07-25T00:00:10;11.13;;;10.00;;
3663;SDS011;1848;51.042;7.066;2022-07-25T00:02:37;10.70;;;9.70;;
3663;SDS011;1848;51.042;7.066;2022-07-25T00:05:04;10.30;;;9.43;;
3663;SDS011;1848;51.042;7.066;2022-07-25T00:07:31;10.00;;;9.00;;
3663;SDS011;1848;51.042;7.066;2022-07-25T00:09:57;13.63;;;10.33;;
3663;SDS011;1848;51.042;7.066;2022-07-25T00:12:24;10.30;;;9.40;;
3663;SDS011;1848;51.042;7.066;2022-07-25T00:14:50;10.67;;;9.80;;
3663;SDS011;1848;51.042;7.066;2022-07-25T00:17:17;11.03;;;10.13;;
3663;SDS011;1848;51.042;7.066;2022-07-25T00:19:43;11.00;;;10.00;;
3663;SDS011;1848;51.042;7.066;2022-07-25T00:22:10;10.80;;;9.83;;
3663;SDS011;1848;51.042;7.066;2022-07-25T00:24:36;10.40;;;9.57;;
3663;SDS011;1848;51.042;7.066;2022-07-25T00:27:02;10.97;;;9.87;;
3663;SDS011;1848;51.042;7.066;2022-07-25T00:29:29;10.20;;;9.20;;
3663;SDS011;1848;51.042;7.066;2022-07-25T00:31:56;10.93;;;10.13;;
3663;SDS011;1848;51.042;7.066;2022-07-25T00:34:22;11.13;;;9.53;;
3663;SDS011;1848;51.042;7.066;2022-07-25T00:36:48;10.67;;;9.67;;
3663;SDS011;1848;51.042;7.066;2022-07-25T00:39:15;10.40;;;9.53;;
3663;SDS011;1848;51.042;7.066;2022-07-25T00:41:41;10.73;;;9.83;;
3663;SDS011;1848;51.042;7.066;2022-07-25T00:44:09;10.50;;;9.70;;
3663;SDS011;1848;51.042;7.066;2022-07-25T00:46:50;10.20;;;9.40;;
3663;SDS011;1848;51.042;7.066;2022-07-25T00:49:17;11.00;;;9.47;;
3663;SDS011;1848;51.042;7.066;2022-07-25T00:51:43;9.97;;;9.17;;
3663;SDS011;1848;51.042;7.066;2022-07-25T00:54:10;10.70;;;9.60;;
3663;SDS011;1848;51.042;7.066;2022-07-25T00:56:37;10.90;;;10.00;;
3663;SDS011;1848;51.042;7.066;2022-07-25T00:59:04;10.63;;;9.73;;
3663;SDS011;1848;51.042;7.066;2022-07-25T01:01:31;10.33;;;9.53;;
3663;SDS011;1848;51.042;7.066;2022-07-25T01:03:58;10.80;;;9.90;;
3663;SDS011;1848;51.042;7.066;2022-07-25T01:06:25;10.77;;;9.87;;
3663;SDS011;1848;51.042;7.066;2022-07-25T01:08:52;10.83;;;9.77;;
3663;SDS011;1848;51.042;7.066;2022-07-25T01:11:20;11.40;;;10.50;;
3663;SDS011;1848;51.042;7.066;2022-07-25T01:13:47;9.70;;;8.97;;
3663;SDS011;1848;51.042;7.066;2022-07-25T01:16:13;9.93;;;9.03;;
3663;SDS011;1848;51.042;7.066;2022-07-25T01:18:40;10.93;;;9.90;;
3663;SDS011;1848;51.042;7.066;2022-07-25T01:21:06;10.40;;;9.50;;
3663;SDS011;1848;51.042;7.066;2022-07-25T01:23:33;11.93;;;10.10;;
3663;SDS011;1848;51.042;7.066;2022-07-25T01:25:59;11.53;;;10.47;;
3663;SDS011;1848;51.042;7.066;2022-07-25T01:28:26;10.20;;;9.40;;
3663;SDS011;1848;51.042;7.066;2022-07-25T01:30:52;10.53;;;9.53;;
3663;SDS011;1848;51.042;7.066;2022-07-25T01:33:19;9.97;;;9.17;;
3663;SDS011;1848;51.042;7.066;2022-07-25T01:35:47;10.87;;;10.00;;
3663;SDS011;1848;51.042;7.066;2022-07-25T01:38:14;10.10;;;9.30;;
3663;SDS011;1848;51.042;7.066;2022-07-25T01:40:41;10.30;;;9.40;;
3663;SDS011;1848;51.042;7.066;2022-07-25T01:43:09;10.43;;;9.60;;
3663;SDS011;1848;51.042;7.066;2022-07-25T01:45:36;10.20;;;9.30;;
3663;SDS011;1848;51.042;7.066;2022-07-25T01:48:03;10.13;;;9.37;;
3663;SDS011;1848;51.042;7.066;2022-07-25T01:50:29;10.60;;;9.80;;
3663;SDS011;1848;51.042;7.066;2022-07-25T01:52:56;13.87;;;9.60;;
3663;SDS011;1848;51.042;7.066;2022-07-25T01:55:22;11.07;;;10.20;;
3663;SDS011;1848;51.042;7.066;2022-07-25T01:57:50;10.63;;;9.67;;
3663;SDS011;1848;51.042;7.066;2022-07-25T02:00:17;10.00;;;9.10;;
3663;SDS011;1848;51.042;7.066;2022-07-25T02:02:44;10.20;;;9.27;;
3663;SDS011;1848;51.042;7.066;2022-07-25T02:05:11;11.30;;;9.60;;
3663;SDS011;1848;51.042;7.066;2022-07-25T02:07:38;10.30;;;9.40;;
3663;SDS011;1848;51.042;7.066;2022-07-25T02:10:05;10.13;;;9.33;;
3663;SDS011;1848;51.042;7.066;2022-07-25T02:12:33;11.23;;;9.60;;
3663;SDS011;1848;51.042;7.066;2022-07-25T02:14:59;10.83;;;9.70;;
3663;SDS011;1848;51.042;7.066;2022-07-25T02:17:25;10.40;;;9.50;;
3663;SDS011;1848;51.042;7.066;2022-07-25T02:19:52;10.00;;;9.13;;
3663;SDS011;1848;51.042;7.066;2022-07-25T02:22:18;10.23;;;9.43;;
3663;SDS011;1848;51.042;7.066;2022-07-25T02:24:45;10.43;;;9.53;;
3663;SDS011;1848;51.042;7.066;2022-07-25T02:27:11;9.93;;;9.03;;
3663;SDS011;1848;51.042;7.066;2022-07-25T02:29:37;14.43;;;10.87;;
3663;SDS011;1848;51.042;7.066;2022-07-25T02:32:04;10.93;;;10.10;;
3663;SDS011;1848;51.042;7.066;2022-07-25T02:34:31;11.00;;;10.10;;
3663;SDS011;1848;51.042;7.066;2022-07-25T02:36:57;11.47;;;10.47;;
3663;SDS011;1848;51.042;7.066;2022-07-25T02:39:24;10.07;;;9.20;;
3663;SDS011;1848;51.042;7.066;2022-07-25T02:41:50;11.73;;;9.20;;
3663;SDS011;1848;51.042;7.066;2022-07-25T02:44:16;11.10;;;10.10;;
3663;SDS011;1848;51.042;7.066;2022-07-25T02:46:43;10.20;;;9.20;;
3663;SDS011;1848;51.042;7.066;2022-07-25T02:49:10;10.13;;;9.23;;
3663;SDS011;1848;51.042;7.066;2022-07-25T02:51:36;10.80;;;9.83;;
3663;SDS011;1848;51.042;7.066;2022-07-25T02:54:03;9.93;;;9.13;;
3663;SDS011;1848;51.042;7.066;2022-07-25T02:56:29;10.67;;;9.77;;
3663;SDS011;1848;51.042;7.066;2022-07-25T02:58:58;11.70;;;10.70;;
3663;SDS011;1848;51.042;7.066;2022-07-25T03:01:24;10.40;;;9.53;;
3663;SDS011;1848;51.042;7.066;2022-07-25T03:03:51;10.40;;;9.60;;
3663;SDS011;1848;51.042;7.066;2022-07-25T03:06:17;11.27;;;10.27;;
3663;SDS011;1848;51.042;7.066;2022-07-25T03:08:44;11.10;;;10.20;;
3663;SDS011;1848;51.042;7.066;2022-07-25T03:11:11;11.23;;;10.10;;
3663;SDS011;1848;51.042;7.066;2022-07-25T03:13:38;10.30;;;9.37;;
3663;SDS011;1848;51.042;7.066;2022-07-25T03:16:05;10.70;;;9.70;;
3663;SDS011;1848;51.042;7.066;2022-07-25T03:18:32;11.00;;;9.93;;
3663;SDS011;1848;51.042;7.066;2022-07-25T03:20:58;10.13;;;9.27;;
3663;SDS011;1848;51.042;7.066;2022-07-25T03:23:25;11.07;;;10.17;;
3663;SDS011;1848;51.042;7.066;2022-07-25T03:25:53;10.80;;;9.80;;
3663;SDS011;1848;51.042;7.066;2022-07-25T03:28:20;10.90;;;9.90;;
3663;SDS011;1848;51.042;7.066;2022-07-25T03:30:47;10.80;;;10.00;;
3663;SDS011;1848;51.042;7.066;2022-07-25T03:33:13;10.50;;;9.60;;
3663;SDS011;1848;51.042;7.066;2022-07-25T03:35:39;11.40;;;10.30;;
3663;SDS011;1848;51.042;7.066;2022-07-25T03:38:06;10.17;;;9.37;;
3663;SDS011;1848;51.042;7.066;2022-07-25T03:40:32;10.47;;;9.67;;
3663;SDS011;1848;51.042;7.066;2022-07-25T03:42:59;10.17;;;9.30;;
3663;SDS011;1848;51.042;7.066;2022-07-25T03:45:25;10.40;;;9.43;;
3663;SDS011;1848;51.042;7.066;2022-07-25T03:47:52;10.43;;;9.53;;
3663;SDS011;1848;51.042;7.066;2022-07-25T03:50:18;10.00;;;9.10;;
3663;SDS011;1848;51.042;7.066;2022-07-25T03:52:45;17.33;;;10.67;;
3663;SDS011;1848;51.042;7.066;2022-07-25T03:55:11;10.23;;;9.33;;
3663;SDS011;1848;51.042;7.066;2022-07-25T03:57:38;12.47;;;9.97;;
3663;SDS011;1848;51.042;7.066;2022-07-25T04:00:05;10.10;;;9.20;;
3663;SDS011;1848;51.042;7.066;2022-07-25T04:02:34;9.50;;;8.70;;
3663;SDS011;1848;51.042;7.066;2022-07-25T04:05:03;11.30;;;10.20;;
3663;SDS011;1848;51.042;7.066;2022-07-25T04:07:31;10.10;;;9.30;;
3663;SDS011;1848;51.042;7.066;2022-07-25T04:09:58;10.40;;;9.50;;
3663;SDS011;1848;51.042;7.066;2022-07-25T04:12:25;10.50;;;9.53;;
3663;SDS011;1848;51.042;7.066;2022-07-25T04:14:51;10.60;;;9.60;;
3663;SDS011;1848;51.042;7.066;2022-07-25T04:17:18;10.97;;;9.87;;
3663;SDS011;1848;51.042;7.066;2022-07-25T04:19:46;9.90;;;9.00;;
3663;SDS011;1848;51.042;7.066;2022-07-25T04:22:12;10.27;;;9.20;;
3663;SDS011;1848;51.042;7.066;2022-07-25T04:24:39;9.93;;;9.13;;
3663;SDS011;1848;51.042;7.066;2022-07-25T04:27:05;10.63;;;9.47;;
3663;SDS011;1848;51.042;7.066;2022-07-25T04:29:32;10.67;;;9.67;;
3663;SDS011;1848;51.042;7.066;2022-07-25T04:31:58;10.20;;;9.20;;
3663;SDS011;1848;51.042;7.066;2022-07-25T04:34:25;12.40;;;9.43;;
3663;SDS011;1848;51.042;7.066;2022-07-25T04:36:51;10.33;;;9.33;;
3663;SDS011;1848;51.042;7.066;2022-07-25T04:39:17;9.83;;;8.93;;
3663;SDS011;1848;51.042;7.066;2022-07-25T04:41:44;10.57;;;9.57;;
3663;SDS011;1848;51.042;7.066;2022-07-25T04:44:10;10.53;;;9.63;;
3663;SDS011;1848;51.042;7.066;2022-07-25T04:46:37;10.03;;;9.13;;
3663;SDS011;1848;51.042;7.066;2022-07-25T04:49:05;10.60;;;9.70;;
3663;SDS011;1848;51.042;7.066;2022-07-25T04:51:31;10.03;;;9.13;;
3663;SDS011;1848;51.042;7.066;2022-07-25T04:53:58;9.33;;;8.53;;
3663;SDS011;1848;51.042;7.066;2022-07-25T04:56:24;10.57;;;9.40;;
3663;SDS011;1848;51.042;7.066;2022-07-25T04:58:51;10.87;;;9.77;;
3663;SDS011;1848;51.042;7.066;2022-07-25T05:01:17;10.43;;;8.63;;
3663;SDS011;1848;51.042;7.066;2022-07-25T05:03:44;10.27;;;9.27;;
3663;SDS011;1848;51.042;7.066;2022-07-25T05:06:16;10.17;;;9.37;;
3663;SDS011;1848;51.042;7.066;2022-07-25T05:08:43;10.10;;;9.07;;
3663;SDS011;1848;51.042;7.066;2022-07-25T05:11:09;10.17;;;9.27;;
3663;SDS011;1848;51.042;7.066;2022-07-25T05:13:36;10.10;;;9.20;;
3663;SDS011;1848;51.042;7.066;2022-07-25T05:16:02;11.03;;;9.90;;
3663;SDS011;1848;51.042;7.066;2022-07-25T05:18:29;9.50;;;8.70;;
3663;SDS011;1848;51.042;7.066;2022-07-25T05:20:55;10.10;;;9.20;;
3663;SDS011;1848;51.042;7.066;2022-07-25T05:23:21;9.83;;;8.93;;
3663;SDS011;1848;51.042;7.066;2022-07-25T05:25:48;11.03;;;9.67;;
3663;SDS011;1848;51.042;7.066;2022-07-25T05:28:16;9.90;;;9.10;;
3663;SDS011;1848;51.042;7.066;2022-07-25T05:30:42;9.23;;;8.43;;
3663;SDS011;1848;51.042;7.066;2022-07-25T05:33:09;10.33;;;9.23;;
3663;SDS011;1848;51.042;7.066;2022-07-25T05:35:35;9.57;;;8.67;;
3663;SDS011;1848;51.042;7.066;2022-07-25T05:38:02;9.87;;;9.07;;
3663;SDS011;1848;51.042;7.066;2022-07-25T05:40:30;9.37;;;8.67;;
3663;SDS011;1848;51.042;7.066;2022-07-25T05:42:56;10.60;;;9.60;;
3663;SDS011;1848;51.042;7.066;2022-07-25T05:45:28;10.50;;;9.50;;
3663;SDS011;1848;51.042;7.066;2022-07-25T05:47:54;11.27;;;9.00;;
3663;SDS011;1848;51.042;7.066;2022-07-25T05:50:21;8.53;;;7.77;;
3663;SDS011;1848;51.042;7.066;2022-07-25T05:52:47;11.60;;;8.83;;
3663;SDS011;1848;51.042;7.066;2022-07-25T05:55:13;9.23;;;8.40;;
3663;SDS011;1848;51.042;7.066;2022-07-25T05:57:40;10.90;;;9.90;;
3663;SDS011;1848;51.042;7.066;2022-07-25T06:00:07;9.27;;;8.37;;
3663;SDS011;1848;51.042;7.066;2022-07-25T06:02:34;9.87;;;9.07;;
3663;SDS011;1848;51.042;7.066;2022-07-25T06:05:01;9.33;;;8.47;;
3663;SDS011;1848;51.042;7.066;2022-07-25T06:07:28;10.23;;;9.13;;
3663;SDS011;1848;51.042;7.066;2022-07-25T06:09:54;9.63;;;8.73;;
3663;SDS011;1848;51.042;7.066;2022-07-25T06:12:20;11.60;;;10.57;;
3663;SDS011;1848;51.042;7.066;2022-07-25T06:14:49;10.07;;;9.20;;
3663;SDS011;1848;51.042;7.066;2022-07-25T06:17:16;10.10;;;9.20;;
3663;SDS011;1848;51.042;7.066;2022-07-25T06:19:42;10.10;;;9.20;;
3663;SDS011;1848;51.042;7.066;2022-07-25T06:22:09;9.23;;;8.40;;
3663;SDS011;1848;51.042;7.066;2022-07-25T06:24:36;10.63;;;9.40;;
3663;SDS011;1848;51.042;7.066;2022-07-25T06:27:03;10.33;;;9.23;;
3663;SDS011;1848;51.042;7.066;2022-07-25T06:29:29;12.17;;;8.67;;
3663;SDS011;1848;51.042;7.066;2022-07-25T06:31:56;10.30;;;9.37;;
3663;SDS011;1848;51.042;7.066;2022-07-25T06:34:22;10.57;;;9.30;;
3663;SDS011;1848;51.042;7.066;2022-07-25T06:36:54;10.93;;;9.70;;
3663;SDS011;1848;51.042;7.066;2022-07-25T06:39:22;9.80;;;8.87;;
3663;SDS011;1848;51.042;7.066;2022-07-25T06:41:49;10.00;;;9.10;;
3663;SDS011;1848;51.042;7.066;2022-07-25T06:44:16;10.60;;;9.07;;
3663;SDS011;1848;51.042;7.066;2022-07-25T06:46:42;11.30;;;10.20;;
3663;SDS011;1848;51.042;7.066;2022-07-25T06:49:09;9.83;;;8.87;;
3663;SDS011;1848;51.042;7.066;2022-07-25T06:51:35;10.57;;;9.67;;
3663;SDS011;1848;51.042;7.066;2022-07-25T06:54:02;10.27;;;9.27;;
3663;SDS011;1848;51.042;7.066;2022-07-25T06:56:29;9.20;;;8.30;;
3663;SDS011;1848;51.042;7.066;2022-07-25T06:58:58;11.10;;;10.00;;
3663;SDS011;1848;51.042;7.066;2022-07-25T07:01:25;9.87;;;8.97;;
3663;SDS011;1848;51.042;7.066;2022-07-25T07:03:51;10.83;;;9.73;;
3663;SDS011;1848;51.042;7.066;2022-07-25T07:06:18;9.33;;;8.53;;
3663;SDS011;1848;51.042;7.066;2022-07-25T07:08:45;10.23;;;9.27;;
3663;SDS011;1848;51.042;7.066;2022-07-25T07:11:12;10.37;;;9.40;;
3663;SDS011;1848;51.042;7.066;2022-07-25T07:13:40;10.47;;;9.57;;
3663;SDS011;1848;51.042;7.066;2022-07-25T07:16:06;10.37;;;9.47;;
3663;SDS011;1848;51.042;7.066;2022-07-25T07:18:33;10.30;;;9.30;;
3663;SDS011;1848;51.042;7.066;2022-07-25T07:20:59;10.67;;;9.50;;
3663;SDS011;1848;51.042;7.066;2022-07-25T07:23:26;11.57;;;10.40;;
3663;SDS011;1848;51.042;7.066;2022-07-25T07:25:54;11.23;;;10.13;;
3663;SDS011;1848;51.042;7.066;2022-07-25T07:28:21;10.60;;;9.40;;
3663;SDS011;1848;51.042;7.066;2022-07-25T07:30:47;10.57;;;9.67;;
3663;SDS011;1848;51.042;7.066;2022-07-25T07:33:34;10.67;;;9.73;;
3663;SDS011;1848;51.042;7.066;2022-07-25T07:36:02;10.50;;;9.50;;
3663;SDS011;1848;51.042;7.066;2022-07-25T07:38:29;14.70;;;9.90;;
3663;SDS011;1848;51.042;7.066;2022-07-25T07:40:55;10.13;;;9.33;;
3663;SDS011;1848;51.042;7.066;2022-07-25T07:43:22;12.03;;;10.10;;
3663;SDS011;1848;51.042;7.066;2022-07-25T07:45:55;11.30;;;10.30;;
3663;SDS011;1848;51.042;7.066;2022-07-25T07:48:24;11.40;;;10.30;;
3663;SDS011;1848;51.042;7.066;2022-07-25T07:50:55;10.80;;;9.90;;
3663;SDS011;1848;51.042;7.066;2022-07-25T07:53:21;11.10;;;10.03;;
3663;SDS011;1848;51.042;7.066;2022-07-25T07:55:48;10.90;;;10.00;;
3663;SDS011;1848;51.042;7.066;2022-07-25T07:58:20;11.03;;;10.03;;
3663;SDS011;1848;51.042;7.066;2022-07-25T08:00:47;11.70;;;10.00;;
3663;SDS011;1848;51.042;7.066;2022-07-25T08:03:17;11.00;;;10.00;;
3663;SDS011;1848;51.042;7.066;2022-07-25T08:05:46;12.57;;;10.60;;
3663;SDS011;1848;51.042;7.066;2022-07-25T08:08:13;10.87;;;9.77;;
3663;SDS011;1848;51.042;7.066;2022-07-25T08:10:41;10.37;;;9.47;;
3663;SDS011;1848;51.042;7.066;2022-07-25T08:13:13;10.90;;;10.00;;
3663;SDS011;1848;51.042;7.066;2022-07-25T08:15:45;10.93;;;9.93;;
3663;SDS011;1848;51.042;7.066;2022-07-25T08:18:13;11.47;;;10.30;;
3663;SDS011;1848;51.042;7.066;2022-07-25T08:20:43;11.27;;;10.27;;
3663;SDS011;1848;51.042;7.066;2022-07-25T08:23:10;10.27;;;9.27;;
3663;SDS011;1848;51.042;7.066;2022-07-25T08:25:37;11.10;;;10.07;;
3663;SDS011;1848;51.042;7.066;2022-07-25T08:28:05;10.40;;;9.53;;
3663;SDS011;1848;51.042;7.066;2022-07-25T08:30:32;10.23;;;9.20;;
3663;SDS011;1848;51.042;7.066;2022-07-25T08:33:01;11.50;;;10.37;;
3663;SDS011;1848;51.042;7.066;2022-07-25T08:35:30;10.63;;;9.60;;
3663;SDS011;1848;51.042;7.066;2022-07-25T08:37:58;10.80;;;9.90;;
3663;SDS011;1848;51.042;7.066;2022-07-25T08:40:26;10.70;;;9.70;;
3663;SDS011;1848;51.042;7.066;2022-07-25T08:42:54;10.80;;;9.80;;
3663;SDS011;1848;51.042;7.066;2022-07-25T08:45:21;10.70;;;9.67;;
3663;SDS011;1848;51.042;7.066;2022-07-25T08:47:49;9.73;;;8.93;;
3663;SDS011;1848;51.042;7.066;2022-07-25T08:50:18;9.80;;;8.80;;
3663;SDS011;1848;51.042;7.066;2022-07-25T08:52:50;11.70;;;10.00;;
3663;SDS011;1848;51.042;7.066;2022-07-25T08:55:37;9.80;;;9.00;;
3663;SDS011;1848;51.042;7.066;2022-07-25T08:58:04;13.83;;;9.87;;
3663;SDS011;1848;51.042;7.066;2022-07-25T09:00:30;10.07;;;8.80;;
3663;SDS011;1848;51.042;7.066;2022-07-25T09:02:59;9.63;;;8.83;;
3663;SDS011;1848;51.042;7.066;2022-07-25T09:05:29;10.33;;;9.33;;
3663;SDS011;1848;51.042;7.066;2022-07-25T09:07:57;9.90;;;8.90;;
3663;SDS011;1848;51.042;7.066;2022-07-25T09:10:31;10.00;;;9.10;;
3663;SDS011;1848;51.042;7.066;2022-07-25T09:15:26;11.10;;;9.73;;
3663;SDS011;1848;51.042;7.066;2022-07-25T09:17:57;10.93;;;9.83;;
3663;SDS011;1848;51.042;7.066;2022-07-25T09:20:39;28.70;;;9.90;;
3663;SDS011;1848;51.042;7.066;2022-07-25T09:23:08;10.67;;;9.40;;
3663;SDS011;1848;51.042;7.066;2022-07-25T09:25:36;11.23;;;10.20;;
3663;SDS011;1848;51.042;7.066;2022-07-25T09:28:10;9.83;;;9.03;;
3663;SDS011;1848;51.042;7.066;2022-07-25T09:30:57;12.13;;;9.73;;
3663;SDS011;1848;51.042;7.066;2022-07-25T09:33:26;10.07;;;9.00;;
3663;SDS011;1848;51.042;7.066;2022-07-25T09:35:54;10.63;;;9.63;;
3663;SDS011;1848;51.042;7.066;2022-07-25T09:38:21;10.10;;;9.10;;
3663;SDS011;1848;51.042;7.066;2022-07-25T09:40:59;10.10;;;9.10;;
3663;SDS011;1848;51.042;7.066;2022-07-25T09:43:42;10.80;;;9.77;;
3663;SDS011;1848;51.042;7.066;2022-07-25T09:46:09;10.90;;;9.70;;
3663;SDS011;1848;51.042;7.066;2022-07-25T09:48:38;9.90;;;8.90;;
3663;SDS011;1848;51.042;7.066;2022-07-25T09:51:09;11.07;;;9.97;;
3663;SDS011;1848;51.042;7.066;2022-07-25T09:53:35;11.70;;;9.13;;
3663;SDS011;1848;51.042;7.066;2022-07-25T09:56:01;10.73;;;9.40;;
3663;SDS011;1848;51.042;7.066;2022-07-25T09:58:28;10.70;;;9.53;;
3663;SDS011;1848;51.042;7.066;2022-07-25T10:00:56;11.50;;;9.50;;
3663;SDS011;1848;51.042;7.066;2022-07-25T10:09:01;9.93;;;8.93;;
3663;SDS011;1848;51.042;7.066;2022-07-25T10:11:28;11.27;;;9.23;;
3663;SDS011;1848;51.042;7.066;2022-07-25T10:14:07;10.47;;;9.47;;
3663;SDS011;1848;51.042;7.066;2022-07-25T10:16:46;10.70;;;9.70;;
3663;SDS011;1848;51.042;7.066;2022-07-25T10:19:13;11.03;;;8.90;;
3663;SDS011;1848;51.042;7.066;2022-07-25T10:21:40;12.23;;;10.20;;
3663;SDS011;1848;51.042;7.066;2022-07-25T10:24:08;11.23;;;10.17;;
3663;SDS011;1848;51.042;7.066;2022-07-25T10:26:36;10.23;;;9.30;;
3663;SDS011;1848;51.042;7.066;2022-07-25T10:29:08;10.20;;;9.20;;
3663;SDS011;1848;51.042;7.066;2022-07-25T10:31:36;11.50;;;9.70;;
3663;SDS011;1848;51.042;7.066;2022-07-25T10:34:12;10.17;;;9.27;;
3663;SDS011;1848;51.042;7.066;2022-07-25T10:36:43;10.70;;;9.70;;
3663;SDS011;1848;51.042;7.066;2022-07-25T10:39:15;10.47;;;9.00;;
3663;SDS011;1848;51.042;7.066;2022-07-25T10:41:51;11.83;;;9.30;;
3663;SDS011;1848;51.042;7.066;2022-07-25T10:44:19;11.00;;;10.00;;
3663;SDS011;1848;51.042;7.066;2022-07-25T10:46:46;11.27;;;10.27;;
3663;SDS011;1848;51.042;7.066;2022-07-25T10:49:20;9.87;;;8.97;;
3663;SDS011;1848;51.042;7.066;2022-07-25T10:51:58;9.87;;;8.97;;
3663;SDS011;1848;51.042;7.066;2022-07-25T10:54:31;11.13;;;9.10;;
3663;SDS011;1848;51.042;7.066;2022-07-25T10:57:02;10.00;;;9.07;;
3663;SDS011;1848;51.042;7.066;2022-07-25T10:59:34;10.67;;;9.67;;
3663;SDS011;1848;51.042;7.066;2022-07-25T11:02:03;11.40;;;10.30;;
3663;SDS011;1848;51.042;7.066;2022-07-25T11:04:31;11.97;;;9.07;;
3663;SDS011;1848;51.042;7.066;2022-07-25T11:07:08;13.30;;;10.10;;
3663;SDS011;1848;51.042;7.066;2022-07-25T11:09:36;10.97;;;9.83;;
3663;SDS011;1848;51.042;7.066;2022-07-25T11:12:03;10.50;;;9.33;;
3663;SDS011;1848;51.042;7.066;2022-07-25T11:14:34;10.90;;;9.93;;
3663;SDS011;1848;51.042;7.066;2022-07-25T11:17:10;10.40;;;9.50;;
3663;SDS011;1848;51.042;7.066;2022-07-25T11:22:28;9.40;;;8.60;;
3663;SDS011;1848;51.042;7.066;2022-07-25T11:24:55;11.33;;;10.30;;
3663;SDS011;1848;51.042;7.066;2022-07-25T11:27:24;10.53;;;9.30;;
3663;SDS011;1848;51.042;7.066;2022-07-25T11:29:51;10.03;;;8.90;;
3663;SDS011;1848;51.042;7.066;2022-07-25T11:32:18;10.30;;;9.40;;
3663;SDS011;1848;51.042;7.066;2022-07-25T11:34:46;11.03;;;9.90;;
3663;SDS011;1848;51.042;7.066;2022-07-25T11:37:16;10.40;;;9.50;;
3663;SDS011;1848;51.042;7.066;2022-07-25T11:39:45;10.23;;;9.33;;
3663;SDS011;1848;51.042;7.066;2022-07-25T11:42:16;9.90;;;9.00;;
3663;SDS011;1848;51.042;7.066;2022-07-25T11:44:53;9.43;;;8.60;;
3663;SDS011;1848;51.042;7.066;2022-07-25T11:47:21;9.20;;;8.33;;
3663;SDS011;1848;51.042;7.066;2022-07-25T11:49:59;12.20;;;8.60;;
3663;SDS011;1848;51.042;7.066;2022-07-25T11:52:28;11.63;;;8.70;;
3663;SDS011;1848;51.042;7.066;2022-07-25T11:55:03;9.03;;;8.23;;
3663;SDS011;1848;51.042;7.066;2022-07-25T11:57:34;12.13;;;8.60;;
3663;SDS011;1848;51.042;7.066;2022-07-25T12:02:35;9.97;;;8.33;;
3663;SDS011;1848;51.042;7.066;2022-07-25T12:05:03;8.73;;;7.83;;
3663;SDS011;1848;51.042;7.066;2022-07-25T12:07:47;9.10;;;8.13;;
3663;SDS011;1848;51.042;7.066;2022-07-25T12:10:17;9.30;;;7.93;;
3663;SDS011;1848;51.042;7.066;2022-07-25T12:12:53;11.00;;;7.10;;
3663;SDS011;1848;51.042;7.066;2022-07-25T12:15:21;7.67;;;6.97;;
3663;SDS011;1848;51.042;7.066;2022-07-25T12:17:49;8.33;;;7.60;;
3663;SDS011;1848;51.042;7.066;2022-07-25T12:20:21;8.40;;;6.30;;
3663;SDS011;1848;51.042;7.066;2022-07-25T12:22:53;12.77;;;7.03;;
3663;SDS011;1848;51.042;7.066;2022-07-25T12:25:23;8.67;;;6.70;;
3663;SDS011;1848;51.042;7.066;2022-07-25T12:27:56;9.90;;;7.90;;
3663;SDS011;1848;51.042;7.066;2022-07-25T12:30:24;7.23;;;6.63;;
3663;SDS011;1848;51.042;7.066;2022-07-25T12:32:55;11.30;;;7.20;;
3663;SDS011;1848;51.042;7.066;2022-07-25T12:35:23;8.10;;;7.30;;
3663;SDS011;1848;51.042;7.066;2022-07-25T12:37:50;9.23;;;7.57;;
3663;SDS011;1848;51.042;7.066;2022-07-25T12:40:17;7.77;;;7.17;;
3663;SDS011;1848;51.042;7.066;2022-07-25T12:42:44;8.47;;;7.67;;
3663;SDS011;1848;51.042;7.066;2022-07-25T12:45:13;7.90;;;7.13;;
3663;SDS011;1848;51.042;7.066;2022-07-25T12:47:42;7.47;;;6.87;;
3663;SDS011;1848;51.042;7.066;2022-07-25T12:50:10;11.10;;;7.13;;
3663;SDS011;1848;51.042;7.066;2022-07-25T12:52:37;7.90;;;7.20;;
3663;SDS011;1848;51.042;7.066;2022-07-25T12:55:07;8.60;;;6.27;;
3663;SDS011;1848;51.042;7.066;2022-07-25T12:57:36;7.93;;;6.83;;
3663;SDS011;1848;51.042;7.066;2022-07-25T13:00:04;8.43;;;6.20;;
3663;SDS011;1848;51.042;7.066;2022-07-25T13:02:32;10.13;;;7.30;;
3663;SDS011;1848;51.042;7.066;2022-07-25T13:04:58;8.03;;;6.67;;
3663;SDS011;1848;51.042;7.066;2022-07-25T13:07:25;9.10;;;7.40;;
3663;SDS011;1848;51.042;7.066;2022-07-25T13:09:52;6.40;;;5.73;;
3663;SDS011;1848;51.042;7.066;2022-07-25T13:12:19;7.13;;;6.43;;
3663;SDS011;1848;51.042;7.066;2022-07-25T13:14:48;9.87;;;5.93;;
3663;SDS011;1848;51.042;7.066;2022-07-25T13:17:14;8.87;;;6.20;;
3663;SDS011;1848;51.042;7.066;2022-07-25T13:19:41;8.63;;;6.50;;
3663;SDS011;1848;51.042;7.066;2022-07-25T13:22:07;8.30;;;6.53;;
3663;SDS011;1848;51.042;7.066;2022-07-25T13:24:34;6.93;;;5.30;;
3663;SDS011;1848;51.042;7.066;2022-07-25T13:27:03;8.67;;;6.00;;
3663;SDS011;1848;51.042;7.066;2022-07-25T13:29:33;6.73;;;5.77;;
3663;SDS011;1848;51.042;7.066;2022-07-25T13:32:01;8.50;;;5.70;;
3663;SDS011;1848;51.042;7.066;2022-07-25T13:34:28;9.30;;;5.67;;
3663;SDS011;1848;51.042;7.066;2022-07-25T13:36:55;8.90;;;5.90;;
3663;SDS011;1848;51.042;7.066;2022-07-25T13:39:22;9.27;;;5.70;;
3663;SDS011;1848;51.042;7.066;2022-07-25T13:41:49;8.30;;;5.80;;
3663;SDS011;1848;51.042;7.066;2022-07-25T13:44:15;10.30;;;5.60;;
3663;SDS011;1848;51.042;7.066;2022-07-25T13:46:42;7.60;;;5.80;;
3663;SDS011;1848;51.042;7.066;2022-07-25T13:49:11;7.97;;;5.23;;
3663;SDS011;1848;51.042;7.066;2022-07-25T13:51:38;11.10;;;5.37;;
3663;SDS011;1848;51.042;7.066;2022-07-25T13:54:04;5.07;;;4.63;;
3663;SDS011;1848;51.042;7.066;2022-07-25T13:56:31;8.93;;;4.77;;
3663;SDS011;1848;51.042;7.066;2022-07-25T13:58:58;5.60;;;4.50;;
3663;SDS011;1848;51.042;7.066;2022-07-25T14:01:26;12.60;;;5.20;;
3663;SDS011;1848;51.042;7.066;2022-07-25T14:03:54;6.73;;;4.10;;
3663;SDS011;1848;51.042;7.066;2022-07-25T14:06:20;4.43;;;4.03;;
3663;SDS011;1848;51.042;7.066;2022-07-25T14:08:47;6.43;;;4.43;;
3663;SDS011;1848;51.042;7.066;2022-07-25T14:11:13;5.00;;;3.93;;
3663;SDS011;1848;51.042;7.066;2022-07-25T14:13:40;5.77;;;4.20;;
3663;SDS011;1848;51.042;7.066;2022-07-25T14:16:08;6.93;;;4.77;;
3663;SDS011;1848;51.042;7.066;2022-07-25T14:18:35;5.57;;;3.93;;
3663;SDS011;1848;51.042;7.066;2022-07-25T14:21:01;8.80;;;4.17;;
3663;SDS011;1848;51.042;7.066;2022-07-25T14:23:28;5.37;;;3.70;;
3663;SDS011;1848;51.042;7.066;2022-07-25T14:25:56;4.50;;;3.87;;
3663;SDS011;1848;51.042;7.066;2022-07-25T14:28:24;4.00;;;3.60;;
3663;SDS011;1848;51.042;7.066;2022-07-25T14:30:50;5.03;;;4.47;;
3663;SDS011;1848;51.042;7.066;2022-07-25T14:33:17;6.43;;;4.57;;
3663;SDS011;1848;51.042;7.066;2022-07-25T14:35:44;6.43;;;4.20;;
3663;SDS011;1848;51.042;7.066;2022-07-25T14:38:10;6.60;;;4.43;;
3663;SDS011;1848;51.042;7.066;2022-07-25T14:40:39;5.60;;;4.43;;
3663;SDS011;1848;51.042;7.066;2022-07-25T14:43:06;10.47;;;4.67;;
3663;SDS011;1848;51.042;7.066;2022-07-25T14:45:33;6.60;;;4.27;;
3663;SDS011;1848;51.042;7.066;2022-07-25T14:48:04;5.23;;;4.50;;
3663;SDS011;1848;51.042;7.066;2022-07-25T14:50:31;8.23;;;4.07;;
3663;SDS011;1848;51.042;7.066;2022-07-25T14:52:57;6.23;;;4.47;;
3663;SDS011;1848;51.042;7.066;2022-07-25T14:55:24;8.37;;;3.83;;
3663;SDS011;1848;51.042;7.066;2022-07-25T14:57:50;4.70;;;3.80;;
3663;SDS011;1848;51.042;7.066;2022-07-25T15:00:17;6.60;;;4.13;;
3663;SDS011;1848;51.042;7.066;2022-07-25T15:02:43;4.23;;;3.83;;
3663;SDS011;1848;51.042;7.066;2022-07-25T15:05:10;4.03;;;3.73;;
3663;SDS011;1848;51.042;7.066;2022-07-25T15:07:37;9.47;;;4.77;;
3663;SDS011;1848;51.042;7.066;2022-07-25T15:10:03;6.60;;;4.40;;
3663;SDS011;1848;51.042;7.066;2022-07-25T15:12:30;7.13;;;4.07;;
3663;SDS011;1848;51.042;7.066;2022-07-25T15:14:57;9.43;;;4.33;;
3663;SDS011;1848;51.042;7.066;2022-07-25T15:17:23;5.43;;;4.20;;
3663;SDS011;1848;51.042;7.066;2022-07-25T15:19:50;9.73;;;4.50;;